Time;durP1;ratioP1;P1;durP2;ratioP2;P2;SDS_P1;SDS_P2;PMS_P1;PMS_P2;Temp;Humidity;BMP_temperature;BMP_pressure;BME280_temperature;BME280_humidity;BME280_pressure;Samples;Min_cycle;Max_cycle;Signal;HPM_P1;HPM_P2
2022/06/05 00:01:46;;;;;;;15.25;8.68;;;;;;;18.99;98.18;99091.67;1567728;90;21091;-78
2022/06/05 00:04:35;;;;;;;12.33;8.18;;;;;;;18.99;95.60;99102.22;1567344;90;21635;-79
2022/06/05 00:07:36;;;;;;;20.60;9.38;;;;;;;18.97;96.60;99104.09;1574792;89;21059;-78
2022/06/05 00:10:20;;;;;;;18.52;9.33;;;;;;;18.96;96.75;99110.28;1588040;89;21077;-79
2022/06/05 00:13:14;;;;;;;17.70;10.18;;;;;;;18.93;97.87;99102.10;1578357;88;21121;-78
2022/06/05 00:15:42;;;;;;;22.00;9.85;;;;;;;18.90;97.01;99100.98;1589203;89;21108;-79
2022/06/05 00:18:08;;;;;;;19.67;10.40;;;;;;;18.87;97.65;99101.99;1570938;90;21172;-78
2022/06/05 00:20:35;;;;;;;18.05;10.93;;;;;;;18.86;96.73;99101.63;1587893;89;21053;-78
2022/06/05 00:23:02;;;;;;;15.05;10.10;;;;;;;18.87;97.75;99101.16;1564666;89;21511;-78
2022/06/05 00:25:37;;;;;;;17.30;10.40;;;;;;;18.86;95.96;99105.58;1588534;89;21085;-78
2022/06/05 00:28:43;;;;;;;21.82;10.90;;;;;;;18.86;97.46;99109.98;1586739;89;21095;-79
2022/06/05 00:31:18;;;;;;;16.32;10.88;;;;;;;18.86;96.65;99106.90;1569062;89;21090;-80
2022/06/05 00:33:45;;;;;;;20.23;10.18;;;;;;;18.83;97.37;99106.23;1585968;90;22389;-80
2022/06/05 00:36:46;;;;;;;16.27;9.90;;;;;;;18.81;99.09;99108.94;1585886;89;21061;-79
2022/06/05 00:39:21;;;;;;;18.90;9.23;;;;;;;18.80;97.50;99111.21;1569115;91;21590;-80
2022/06/05 00:42:02;;;;;;;18.62;8.58;;;;;;;18.78;99.69;99116.13;1563104;90;22321;-80
2022/06/05 00:44:42;;;;;;;13.90;9.07;;;;;;;18.76;99.08;99114.94;1605671;89;21069;-79
2022/06/05 00:47:13;;;;;;;13.93;9.28;;;;;;;18.71;98.65;99106.44;1566743;90;21088;-81
2022/06/05 00:49:48;;;;;;;14.45;9.33;;;;;;;18.72;98.47;99102.88;1581457;89;21591;-78
2022/06/05 00:52:17;;;;;;;19.62;10.03;;;;;;;18.73;100.00;99099.30;1564176;90;21090;-78
2022/06/05 00:54:44;;;;;;;17.00;10.40;;;;;;;18.74;99.54;99102.33;1568214;90;21071;-80
2022/06/05 00:57:13;;;;;;;17.15;9.93;;;;;;;18.77;98.82;99112.66;1572315;90;21091;-79
2022/06/05 00:59:43;;;;;;;18.52;9.98;;;;;;;18.82;100.00;99113.28;1597055;90;21082;-78
2022/06/05 01:02:12;;;;;;;19.98;10.68;;;;;;;18.82;100.00;99118.55;1580348;90;21025;-79
2022/06/05 01:04:43;;;;;;;18.20;9.98;;;;;;;18.85;100.00;99117.52;1572853;90;21071;-78
2022/06/05 01:07:11;;;;;;;17.10;9.50;;;;;;;18.81;100.00;99115.53;1572889;90;21115;-78
2022/06/05 01:09:41;;;;;;;13.83;8.58;;;;;;;18.80;100.00;99109.89;1582546;90;21573;-78
2022/06/05 01:12:25;;;;;;;16.60;9.20;;;;;;;18.79;100.00;99109.95;1578812;90;21145;-78
2022/06/05 01:15:26;;;;;;;23.22;9.85;;;;;;;18.79;100.00;99111.27;1567153;88;21079;-78
2022/06/05 01:18:23;;;;;;;18.67;10.43;;;;;;;18.78;100.00;99119.64;1574621;89;21113;-78
2022/06/05 01:21:14;;;;;;;17.60;10.38;;;;;;;18.73;100.00;99124.31;1582416;90;21570;-79
2022/06/05 01:24:33;;;;;;;18.82;10.38;;;;;;;18.74;99.81;99117.25;1581787;90;21065;-79
2022/06/05 01:27:06;;;;;;;23.12;10.08;;;;;;;18.73;99.69;99119.52;1566302;90;21651;-79
2022/06/05 01:29:41;;;;;;;17.75;10.25;;;;;;;18.73;100.00;99120.36;1589663;90;21127;-80
2022/06/05 01:32:31;;;;;;;23.85;10.75;;;;;;;18.73;100.00;99123.00;1565499;90;21099;-79
2022/06/05 01:35:06;;;;;;;22.48;10.38;;;;;;;18.76;100.00;99118.88;1567930;90;21095;-79
2022/06/05 01:37:37;;;;;;;15.40;10.32;;;;;;;18.78;100.00;99117.00;1563206;90;21107;-79
2022/06/05 01:40:21;;;;;;;20.92;10.23;;;;;;;18.77;99.99;99113.98;1583404;90;21074;-80
2022/06/05 01:43:05;;;;;;;15.78;10.00;;;;;;;18.68;100.00;99107.92;1566115;90;21063;-79
2022/06/05 01:45:44;;;;;;;20.52;10.30;;;;;;;18.64;100.00;99108.59;1570246;90;21099;-79
2022/06/05 01:48:15;;;;;;;14.50;9.08;;;;;;;18.61;100.00;99106.12;1561522;90;21031;-80
2022/06/05 01:50:53;;;;;;;16.48;9.35;;;;;;;18.53;100.00;99104.88;1586447;88;21006;-79
2022/06/05 01:53:28;;;;;;;14.65;8.88;;;;;;;18.48;100.00;99102.49;1543030;90;21033;-78
2022/06/05 01:56:04;;;;;;;16.80;9.05;;;;;;;18.45;100.00;99100.05;1589753;89;21482;-80
2022/06/05 01:58:45;;;;;;;20.40;9.23;;;;;;;18.41;100.00;99095.43;1558747;90;21139;-79
2022/06/05 02:01:17;;;;;;;15.00;10.30;;;;;;;18.35;100.00;99097.09;1592576;88;21034;-80
2022/06/05 02:03:52;;;;;;;19.95;10.85;;;;;;;18.33;100.00;99103.39;1558107;90;21068;-79
2022/06/05 02:06:30;;;;;;;15.40;9.78;;;;;;;18.33;100.00;99106.87;1561534;90;21132;-79
2022/06/05 02:09:02;;;;;;;17.15;9.98;;;;;;;18.37;100.00;99102.28;1560161;90;21804;-78
2022/06/05 02:11:32;;;;;;;18.85;12.13;;;;;;;18.38;100.00;99096.06;1585883;89;21110;-79
2022/06/05 02:14:04;;;;;;;18.37;10.15;;;;;;;18.41;100.00;99098.06;1562714;90;21094;-79
2022/06/05 02:16:33;;;;;;;18.12;10.88;;;;;;;18.45;100.00;99096.95;1589738;90;21144;-79
2022/06/05 02:19:12;;;;;;;18.50;9.10;;;;;;;18.47;100.00;99095.08;1570103;90;21047;-79
2022/06/05 02:21:40;;;;;;;15.83;8.88;;;;;;;18.51;100.00;99102.80;1584325;90;21121;-79
2022/06/05 02:24:09;;;;;;;17.20;9.90;;;;;;;18.45;100.00;99102.69;1578239;90;21069;-79
2022/06/05 02:26:37;;;;;;;18.17;10.75;;;;;;;18.45;100.00;99100.05;1579667;90;21159;-80
2022/06/05 02:29:12;;;;;;;16.25;10.70;;;;;;;18.51;100.00;99105.44;1600335;89;21036;-79
2022/06/05 02:31:53;;;;;;;18.45;10.00;;;;;;;18.55;100.00;99110.43;1595219;89;21041;-78
2022/06/05 02:34:37;;;;;;;15.55;9.80;;;;;;;18.57;99.74;99106.40;1594191;89;21094;-79
2022/06/05 02:37:55;;;;;;;12.53;8.70;;;;;;;18.60;99.35;99116.30;1558951;91;21133;-79
2022/06/05 02:40:49;;;;;;;13.95;8.50;;;;;;;18.60;98.63;99112.79;1567101;89;21115;-79
2022/06/05 02:43:29;;;;;;;11.88;8.65;;;;;;;18.59;98.54;99121.64;1596956;89;21065;-79
2022/06/05 02:46:24;;;;;;;13.22;8.50;;;;;;;18.60;98.30;99128.14;1532608;91;21150;-79
2022/06/05 02:48:59;;;;;;;18.87;8.50;;;;;;;18.56;98.10;99121.36;1570327;90;21507;-79
2022/06/05 02:51:33;;;;;;;20.08;8.93;;;;;;;18.55;98.68;99121.44;1580750;86;21161;-79
2022/06/05 02:54:01;;;;;;;15.60;8.50;;;;;;;18.62;98.67;99128.03;1565586;90;21547;-79
2022/06/05 02:56:31;;;;;;;14.93;8.03;;;;;;;18.68;98.62;99127.67;1577226;89;21092;-79
2022/06/05 02:59:02;;;;;;;17.55;8.15;;;;;;;18.70;98.65;99128.42;1593229;89;21024;-79
2022/06/05 03:04:14;;;;;;;17.55;9.38;;;;;;;18.77;97.92;99117.09;1570718;90;21087;-79
2022/06/05 03:06:42;;;;;;;15.08;9.75;;;;;;;18.80;98.22;99119.56;1584385;89;21067;-80
2022/06/05 03:09:09;;;;;;;16.40;10.50;;;;;;;18.81;97.30;99119.48;1578217;89;21601;-78
2022/06/05 03:11:36;;;;;;;20.62;10.00;;;;;;;18.81;98.14;99130.02;1591744;89;21067;-79
2022/06/05 03:14:04;;;;;;;13.98;9.43;;;;;;;18.80;98.25;99120.88;1563568;90;21501;-79
2022/06/05 03:16:31;;;;;;;13.98;7.62;;;;;;;18.81;97.61;99127.38;1587668;89;21136;-79
2022/06/05 03:18:58;;;;;;;11.73;7.83;;;;;;;18.80;97.79;99136.67;1567909;90;21048;-79
2022/06/05 03:21:25;;;;;;;14.93;7.95;;;;;;;18.78;97.16;99131.49;1585791;89;21639;-78
2022/06/05 03:23:51;;;;;;;13.85;7.92;;;;;;;18.76;98.10;99129.42;1584585;89;21545;-78
2022/06/05 03:26:18;;;;;;;13.95;7.60;;;;;;;18.77;97.49;99133.73;1567834;90;21061;-78
2022/06/05 03:28:45;;;;;;;16.02;7.62;;;;;;;18.75;97.22;99132.97;1590815;89;21074;-79
2022/06/05 03:31:12;;;;;;;16.85;8.35;;;;;;;18.74;97.08;99129.11;1569110;90;21656;-78
2022/06/05 03:33:38;;;;;;;12.25;8.33;;;;;;;18.69;97.70;99128.06;1556048;90;21087;-79
2022/06/05 03:36:12;;;;;;;11.80;8.33;;;;;;;18.70;97.32;99131.06;1597273;89;21038;-79
2022/06/05 03:38:39;;;;;;;;;;;;;;;18.75;96.85;99139.56;1561844;91;21088;-80
2022/06/05 03:41:08;;;;;;;11.38;7.33;;;;;;;18.73;97.48;99140.59;1567608;90;20132;-80
2022/06/05 03:43:36;;;;;;;11.43;8.00;;;;;;;18.77;97.08;99148.22;1578168;91;21031;-79
2022/06/05 03:46:08;;;;;;;10.03;7.30;;;;;;;18.85;97.05;99155.23;1590658;89;21069;-79
2022/06/05 03:48:35;;;;;;;13.15;8.13;;;;;;;18.88;96.55;99153.75;1575835;91;21043;-79
2022/06/05 03:51:07;;;;;;;19.32;8.78;;;;;;;18.95;96.81;99162.61;1576944;91;21583;-80
2022/06/05 03:53:34;;;;;;;15.93;8.83;;;;;;;19.02;96.71;99158.21;1558170;92;21064;-80
2022/06/05 03:56:01;;;;;;;18.17;9.60;;;;;;;19.11;96.70;99155.49;1577482;89;21108;-79
2022/06/05 03:58:28;;;;;;;15.00;9.50;;;;;;;19.19;96.79;99156.36;1579238;91;21077;-79
2022/06/05 04:00:54;;;;;;;20.25;9.53;;;;;;;19.28;96.18;99159.30;1563171;90;21052;-78
2022/06/05 04:03:21;;;;;;;16.80;9.68;;;;;;;19.38;96.24;99150.84;1585820;89;21063;-79
2022/06/05 04:05:48;;;;;;;21.95;9.25;;;;;;;19.41;95.49;99169.09;1575248;90;21653;-79
2022/06/05 04:08:16;;;;;;;19.67;8.75;;;;;;;19.51;95.81;99166.27;1592741;90;21084;-81
2022/06/05 04:10:44;;;;;;;14.35;9.28;;;;;;;19.60;95.53;99158.30;1594463;90;21053;-80
2022/06/05 04:13:10;;;;;;;18.82;9.40;;;;;;;19.69;95.38;99152.43;1583372;90;21081;-78
2022/06/05 04:15:39;;;;;;;13.32;8.88;;;;;;;19.80;95.09;99150.50;1570838;90;21086;-79
2022/06/05 04:18:07;;;;;;;14.87;9.18;;;;;;;19.79;94.19;99156.70;1583028;90;21136;-78
2022/06/05 04:20:34;;;;;;;18.00;9.20;;;;;;;19.81;94.09;99156.13;1577516;90;21043;-78
2022/06/05 04:23:02;;;;;;;19.60;8.73;;;;;;;19.83;93.98;99161.68;1547843;90;21146;-79
2022/06/05 04:25:29;;;;;;;16.40;8.25;;;;;;;19.88;93.97;99166.70;1583416;89;21078;-78
2022/06/05 04:27:57;;;;;;;16.37;9.08;;;;;;;19.93;93.49;99175.63;1593829;89;21062;-81
2022/06/05 04:30:26;;;;;;;15.93;9.60;;;;;;;19.96;93.23;99175.45;1575954;90;21062;-79
2022/06/05 04:32:53;;;;;;;17.67;10.30;;;;;;;19.99;92.97;99182.68;1582267;90;21113;-79
2022/06/05 04:35:20;;;;;;;18.02;9.90;;;;;;;20.03;92.80;99176.30;1574341;90;21096;-79
2022/06/05 04:37:47;;;;;;;21.95;9.75;;;;;;;20.05;92.32;99181.45;1578625;90;21092;-79
2022/06/05 04:40:14;;;;;;;16.62;9.33;;;;;;;20.09;92.05;99186.08;1583630;90;21079;-80
2022/06/05 04:42:40;;;;;;;17.32;9.53;;;;;;;20.08;91.91;99190.52;1585154;88;21018;-79
2022/06/05 04:45:08;;;;;;;17.48;9.30;;;;;;;20.09;91.47;99182.12;1570365;90;21541;-79
2022/06/05 04:47:35;;;;;;;17.55;9.63;;;;;;;20.10;91.86;99186.47;1579053;89;21104;-80
2022/06/05 04:50:02;;;;;;;14.15;10.10;;;;;;;20.12;91.49;99189.85;1597279;89;21042;-79
2022/06/05 04:52:29;;;;;;;19.65;9.43;;;;;;;20.12;90.58;99193.81;1566878;90;21152;-79
2022/06/05 04:54:56;;;;;;;20.02;9.53;;;;;;;20.08;90.21;99194.95;1576062;90;21129;-79
2022/06/05 04:57:23;;;;;;;18.02;8.90;;;;;;;20.04;90.71;99197.77;1570435;91;21123;-79
2022/06/05 04:59:50;;;;;;;16.55;9.15;;;;;;;20.05;90.55;99186.73;1565449;91;21073;-79
2022/06/05 05:02:17;;;;;;;15.05;8.68;;;;;;;20.10;90.76;99188.62;1582141;90;21146;-79
2022/06/05 05:04:47;;;;;;;15.23;8.65;;;;;;;20.10;90.37;99191.27;1571593;90;21049;-79
2022/06/05 05:07:14;;;;;;;13.62;8.68;;;;;;;20.17;90.15;99190.39;1581094;90;21124;-80
2022/06/05 05:09:41;;;;;;;14.47;8.83;;;;;;;20.18;89.62;99192.10;1571550;89;21089;-79
2022/06/05 05:12:09;;;;;;;13.10;7.90;;;;;;;20.19;90.06;99183.22;1555729;91;21111;-80
2022/06/05 05:14:37;;;;;;;13.22;8.60;;;;;;;20.21;89.66;99180.02;1553407;92;21090;-79
2022/06/05 05:17:04;;;;;;;15.30;7.70;;;;;;;20.31;89.93;99182.92;1561554;90;21155;-79
2022/06/05 05:19:31;;;;;;;13.45;8.23;;;;;;;20.47;90.07;99175.70;1564633;90;21116;-78
2022/06/05 05:21:58;;;;;;;13.58;8.18;;;;;;;20.64;90.07;99174.17;1578923;90;21077;-79
2022/06/05 05:24:25;;;;;;;11.40;7.12;;;;;;;20.80;89.64;99174.01;1549595;90;21077;-79
2022/06/05 05:26:52;;;;;;;14.50;8.80;;;;;;;20.93;89.43;99174.06;1576945;90;21053;-80
2022/06/05 05:29:19;;;;;;;13.70;8.30;;;;;;;21.05;89.05;99174.55;1563497;90;21074;-79
2022/06/05 05:31:46;;;;;;;11.03;7.90;;;;;;;21.22;88.69;99190.59;1570802;90;21073;-78
2022/06/05 05:34:13;;;;;;;13.50;8.65;;;;;;;21.34;87.85;99189.39;1565978;90;22027;-79
2022/06/05 05:36:41;;;;;;;12.28;8.23;;;;;;;21.26;85.96;99186.78;1600095;89;21082;-79
2022/06/05 05:42:05;;;;;;;15.72;9.93;;;;;;;21.12;85.37;99188.68;1585582;90;21069;-79
2022/06/05 05:44:42;;;;;;;13.80;7.78;;;;;;;21.04;84.88;99183.42;1558779;90;21431;-79
2022/06/05 05:47:17;;;;;;;12.43;8.10;;;;;;;21.02;85.08;99185.80;1578927;90;21597;-80
2022/06/05 05:49:44;;;;;;;14.33;8.98;;;;;;;21.02;84.90;99186.64;1537674;92;21083;-79
2022/06/05 05:52:12;;;;;;;19.35;9.38;;;;;;;21.03;85.35;99183.55;1565945;90;21085;-79
2022/06/05 05:54:40;;;;;;;14.98;8.85;;;;;;;21.15;85.39;99190.64;1564092;90;21055;-79
2022/06/05 05:57:08;;;;;;;15.35;9.20;;;;;;;21.08;85.46;99187.19;1573984;90;21541;-79
2022/06/05 05:59:35;;;;;;;13.88;8.68;;;;;;;21.15;86.02;99191.97;1559513;91;21079;-79
2022/06/05 06:02:06;;;;;;;17.55;8.80;;;;;;;21.25;85.78;99187.75;1558655;91;21563;-79
2022/06/05 06:04:32;;;;;;;16.73;9.45;;;;;;;21.22;85.58;99189.75;1574767;90;21109;-80
2022/06/05 06:06:59;;;;;;;17.27;8.55;;;;;;;21.20;85.39;99192.97;1566388;90;21109;-80
2022/06/05 06:09:26;;;;;;;14.70;8.75;;;;;;;21.15;85.59;99186.69;1562501;90;21059;-80
2022/06/05 06:11:53;;;;;;;16.27;8.98;;;;;;;21.22;85.81;99185.30;1564091;90;21168;-80
2022/06/05 06:14:20;;;;;;;14.10;8.68;;;;;;;21.21;85.44;99193.36;1600261;89;21124;-80
2022/06/05 06:16:46;;;;;;;13.80;7.60;;;;;;;21.27;85.39;99181.05;1611369;89;21192;-80
2022/06/05 06:19:13;;;;;;;15.00;7.92;;;;;;;21.28;85.67;99178.75;1604374;89;21081;-80
2022/06/05 06:21:40;;;;;;;13.48;8.05;;;;;;;21.44;85.49;99172.81;1553967;91;21094;-80
2022/06/05 06:24:07;;;;;;;14.33;8.33;;;;;;;21.50;85.71;99172.88;1569986;91;21052;-79
2022/06/05 06:26:34;;;;;;;16.00;8.78;;;;;;;21.57;85.48;99171.50;1576191;90;21587;-79
2022/06/05 06:29:01;;;;;;;14.75;8.50;;;;;;;21.69;84.71;99167.64;1568027;90;21089;-79
2022/06/05 06:31:27;;;;;;;16.07;7.97;;;;;;;21.64;84.68;99160.02;1566098;91;21136;-79
2022/06/05 06:33:54;;;;;;;11.10;7.20;;;;;;;21.76;83.72;99150.37;1573031;90;21528;-79
2022/06/05 06:36:21;;;;;;;11.60;7.22;;;;;;;21.83;83.29;99158.26;1580967;90;21067;-79
2022/06/05 06:38:48;;;;;;;14.10;6.85;;;;;;;21.90;83.78;99162.14;1570801;90;21042;-78
2022/06/05 06:41:18;;;;;;;12.07;7.45;;;;;;;22.07;83.49;99156.15;1572666;90;21116;-79
2022/06/05 06:43:47;;;;;;;11.18;7.03;;;;;;;22.19;83.40;99153.45;1575698;90;21545;-78
2022/06/05 06:46:15;;;;;;;10.10;6.62;;;;;;;22.40;83.69;99161.69;1581681;90;21043;-80
2022/06/05 06:48:42;;;;;;;11.03;7.03;;;;;;;22.64;82.57;99164.78;1582760;90;21069;-78
2022/06/05 06:51:12;;;;;;;10.65;7.22;;;;;;;22.88;82.58;99159.48;1592973;90;21825;-79
2022/06/05 06:53:41;;;;;;;10.45;6.95;;;;;;;23.17;82.54;99159.11;1570148;89;21097;-79
2022/06/05 06:56:13;;;;;;;12.03;7.08;;;;;;;23.42;81.89;99150.13;1586864;89;21557;-79
2022/06/05 06:58:42;;;;;;;10.32;6.28;;;;;;;23.65;79.92;99152.30;1571386;89;21047;-79
2022/06/05 07:01:10;;;;;;;10.40;6.60;;;;;;;23.70;76.43;99147.48;1587466;89;21083;-80
2022/06/05 07:03:37;;;;;;;9.75;6.95;;;;;;;23.71;77.55;99145.66;1569806;91;22156;-78
2022/06/05 07:06:08;;;;;;;10.80;6.75;;;;;;;23.73;77.60;99137.09;1592223;89;21124;-80
2022/06/05 07:08:35;;;;;;;13.03;6.00;;;;;;;23.81;77.54;99135.58;1579380;89;21426;-79
2022/06/05 07:11:07;;;;;;;10.38;5.50;;;;;;;23.95;76.91;99129.63;1588074;89;21054;-80
2022/06/05 07:13:35;;;;;;;9.70;6.30;;;;;;;23.96;76.63;99130.00;1593111;89;21535;-79
2022/06/05 07:16:02;;;;;;;11.12;5.65;;;;;;;23.98;76.68;99134.70;1589374;89;21106;-79
2022/06/05 07:18:28;;;;;;;12.60;6.22;;;;;;;24.00;76.39;99140.73;1579191;89;21627;-79
2022/06/05 07:20:55;;;;;;;9.65;5.65;;;;;;;24.01;76.78;99137.97;1585640;89;21017;-78
2022/06/05 07:23:22;;;;;;;9.65;6.10;;;;;;;24.24;75.42;99126.45;1594268;89;21046;-79
2022/06/05 07:25:52;;;;;;;10.58;5.85;;;;;;;24.31;74.96;99128.48;1571162;89;21073;-79
2022/06/05 07:28:20;;;;;;;9.53;6.00;;;;;;;24.35;75.23;99121.95;1598268;89;21018;-79
2022/06/05 07:30:49;;;;;;;12.05;6.15;;;;;;;24.44;74.15;99116.85;1585020;89;21394;-79
2022/06/05 07:33:17;;;;;;;7.75;5.67;;;;;;;24.51;74.21;99108.75;1590948;89;21077;-79
2022/06/05 07:35:44;;;;;;;10.53;5.75;;;;;;;24.58;72.85;99113.43;1576738;89;21118;-79
2022/06/05 07:38:11;;;;;;;9.75;5.70;;;;;;;24.73;73.41;99110.00;1588004;89;21023;-79
2022/06/05 07:40:41;;;;;;;9.20;6.08;;;;;;;24.86;72.34;99110.29;1579640;89;21055;-79
2022/06/05 07:43:09;;;;;;;9.73;5.95;;;;;;;24.85;71.85;99105.92;1582033;89;21046;-79
2022/06/05 07:45:42;;;;;;;10.20;5.80;;;;;;;24.93;71.54;99100.80;1581986;89;21072;-79
2022/06/05 07:48:09;;;;;;;8.90;5.83;;;;;;;24.98;71.80;99099.45;1579710;89;21101;-78
2022/06/05 07:54:26;;;;;;;7.67;5.25;;;;;;;25.08;71.44;99099.51;1580445;89;21076;-78
2022/06/05 07:55:50;;;;;;;13.43;6.20;;;;;;;25.09;69.49;99097.22;1575458;89;21587;-78
2022/06/05 07:58:16;;;;;;;8.58;5.80;;;;;;;25.20;69.85;99103.77;1585504;89;21073;-78
2022/06/05 08:00:43;;;;;;;9.05;5.35;;;;;;;25.11;69.94;99095.27;1587309;89;21095;-79
2022/06/05 08:03:10;;;;;;;7.83;5.05;;;;;;;25.23;68.07;99113.83;1581696;89;21064;-78
2022/06/05 08:05:37;;;;;;;8.03;5.55;;;;;;;25.27;68.60;99113.45;1569895;90;21119;-80
2022/06/05 08:08:04;;;;;;;7.83;4.67;;;;;;;25.36;68.60;99115.30;1585882;89;21065;-78
2022/06/05 08:10:32;;;;;;;8.80;4.80;;;;;;;25.44;68.79;99106.66;1572494;91;21091;-79
2022/06/05 08:12:59;;;;;;;9.75;4.50;;;;;;;25.55;68.13;99115.06;1557588;90;21096;-79
2022/06/05 08:15:25;;;;;;;8.43;4.55;;;;;;;25.64;67.65;99121.39;1592629;89;21093;-79
2022/06/05 08:17:52;;;;;;;8.13;4.58;;;;;;;25.85;67.14;99121.34;1557663;91;21107;-79
2022/06/05 08:20:19;;;;;;;8.40;4.17;;;;;;;26.01;66.48;99118.20;1573122;90;21560;-79
2022/06/05 08:22:46;;;;;;;11.10;5.30;;;;;;;25.99;65.03;99115.16;1555016;92;21071;-78
2022/06/05 08:25:14;;;;;;;6.67;4.33;;;;;;;26.01;63.15;99112.86;1571811;90;21029;-79
2022/06/05 08:27:41;;;;;;;7.22;4.50;;;;;;;25.99;63.46;99112.50;1579461;89;21370;-79
2022/06/05 08:30:11;;;;;;;9.55;4.55;;;;;;;26.09;64.74;99113.02;1572785;90;21088;-79
2022/06/05 08:32:38;;;;;;;10.08;4.50;;;;;;;26.17;63.79;99107.34;1600384;89;21042;-78
2022/06/05 08:35:07;;;;;;;8.28;4.53;;;;;;;26.08;64.12;99102.00;1563206;90;21065;-79
2022/06/05 08:43:34;;;;;;;6.95;3.80;;;;;;;25.90;62.53;99085.34;1583276;89;21086;-77
2022/06/05 08:46:21;;;;;;;6.10;3.70;;;;;;;25.89;62.99;99093.45;1566712;90;21122;-79
2022/06/05 08:49:07;;;;;;;6.97;4.12;;;;;;;25.76;62.62;99088.36;1545949;90;21048;-78
2022/06/05 08:51:42;;;;;;;6.12;3.67;;;;;;;25.80;62.61;99089.77;1564474;90;21088;-78
2022/06/05 08:54:22;;;;;;;6.85;4.00;;;;;;;25.79;63.16;99090.77;1531246;92;21399;-77
2022/06/05 08:56:54;;;;;;;8.13;5.45;;;;;;;25.87;63.46;99085.59;1576774;90;21077;-77
2022/06/05 08:59:38;;;;;;;6.90;4.37;;;;;;;25.96;62.39;99089.28;1572555;86;21106;-78
2022/06/05 09:02:28;;;;;;;8.35;4.50;;;;;;;25.94;62.85;99085.45;1585157;89;21312;-78
2022/06/05 09:05:02;;;;;;;7.15;4.30;;;;;;;25.93;63.02;99078.42;1568386;90;21066;-77
2022/06/05 09:07:34;;;;;;;9.18;4.00;;;;;;;26.02;62.90;99081.23;1590806;89;21561;-78
2022/06/05 09:10:26;;;;;;;9.80;4.65;;;;;;;26.07;62.87;99076.36;1589856;89;21724;-79
2022/06/05 09:12:58;;;;;;;13.65;4.60;;;;;;;26.22;62.46;99074.11;1575505;90;21035;-79
2022/06/05 09:15:30;;;;;;;8.83;4.70;;;;;;;26.34;62.28;99068.53;1556953;91;22370;-79
2022/06/05 09:18:00;;;;;;;8.13;4.30;;;;;;;26.41;63.05;99069.30;1559245;91;21176;-79
2022/06/05 09:20:41;;;;;;;7.50;3.90;;;;;;;26.56;62.48;99065.20;1561862;90;21106;-76
2022/06/05 09:23:16;;;;;;;8.20;5.00;;;;;;;26.78;62.01;99062.28;1551990;90;21100;-78
2022/06/05 09:25:58;;;;;;;9.75;4.28;;;;;;;26.81;60.65;99058.48;1559419;90;21141;-77
2022/06/05 09:28:39;;;;;;;6.95;3.80;;;;;;;26.82;59.55;99065.98;1574699;90;21085;-78
2022/06/05 09:31:46;;;;;;;7.08;3.60;;;;;;;26.84;60.02;99058.67;1544473;90;21039;-79
2022/06/05 09:34:21;;;;;;;6.80;3.95;;;;;;;26.83;59.84;99063.17;1559276;90;21125;-78
2022/06/05 09:37:17;;;;;;;6.30;3.95;;;;;;;26.62;59.27;99058.03;1578528;88;21432;-78
2022/06/05 09:40:02;;;;;;;6.85;3.77;;;;;;;26.56;59.48;99053.20;1584968;90;21090;-78
2022/06/05 09:42:56;;;;;;;7.10;3.80;;;;;;;26.47;60.14;99058.91;1598496;89;21166;-78
2022/06/05 09:45:52;;;;;;;5.33;3.30;;;;;;;26.39;58.75;99062.77;1588629;90;21514;-78
2022/06/05 09:48:58;;;;;;;5.78;3.72;;;;;;;26.29;57.19;99068.59;1583717;90;21526;-78
2022/06/05 09:51:25;;;;;;;5.87;3.65;;;;;;;26.30;59.11;99064.93;1578450;90;21092;-78
2022/06/05 09:54:24;;;;;;;5.15;3.37;;;;;;;26.27;59.63;99039.91;1583453;89;21081;-77
2022/06/05 10:00:08;;;;;;;6.30;3.60;;;;;;;26.42;58.95;99030.48;1558767;90;21040;-78
2022/06/05 10:02:37;;;;;;;9.28;4.00;;;;;;;26.61;58.81;99041.67;1581296;90;21041;-79
2022/06/05 10:05:29;;;;;;;6.03;3.75;;;;;;;26.77;58.36;99026.41;1576305;90;21045;-78
2022/06/05 10:08:17;;;;;;;7.00;3.90;;;;;;;26.81;57.39;99022.98;1559220;91;21071;-79
2022/06/05 10:10:46;;;;;;;7.83;3.58;;;;;;;26.95;56.95;99023.84;1579787;90;21051;-80
2022/06/05 10:13:48;;;;;;;8.83;3.80;;;;;;;27.15;57.68;99005.94;1580592;90;21079;-79
2022/06/05 10:16:35;;;;;;;5.75;3.67;;;;;;;27.38;55.85;99001.11;1581421;90;21070;-79
2022/06/05 10:19:22;;;;;;;6.80;3.50;;;;;;;27.56;56.42;98995.81;1572494;90;21006;-79
2022/06/05 10:21:58;;;;;;;6.60;3.12;;;;;;;27.66;56.20;98991.25;1544057;90;21089;-78
2022/06/05 10:24:33;;;;;;;6.08;3.30;;;;;;;27.72;55.51;98976.45;1569383;90;21085;-78
2022/06/05 10:27:03;;;;;;;8.20;3.08;;;;;;;27.70;54.95;98965.09;1578918;90;21136;-79
2022/06/05 10:29:37;;;;;;;5.78;3.30;;;;;;;27.53;54.07;98971.56;1569472;90;21111;-78
2022/06/05 10:32:13;;;;;;;9.28;3.37;;;;;;;27.52;55.31;98962.39;1587117;89;21596;-78
2022/06/05 10:35:33;;;;;;;6.87;3.58;;;;;;;27.41;54.42;98963.42;1571034;90;21585;-78
2022/06/05 10:38:26;;;;;;;8.50;3.60;;;;;;;27.33;54.26;98960.16;1578909;90;21116;-78
2022/06/05 10:40:58;;;;;;;6.28;3.30;;;;;;;27.26;53.16;98966.27;1573074;90;21076;-78
2022/06/05 10:43:31;;;;;;;9.83;3.12;;;;;;;27.09;53.74;98980.68;1571175;89;22194;-78
2022/06/05 10:46:06;;;;;;;7.33;3.80;;;;;;;27.04;54.86;98984.30;1559637;90;21088;-77
2022/06/05 10:48:56;;;;;;;18.85;3.62;;;;;;;26.91;55.59;98986.45;1594058;88;21680;-78
2022/06/05 10:51:37;;;;;;;18.67;3.60;;;;;;;26.25;59.29;98996.08;1562761;90;21571;-78
2022/06/05 10:54:40;;;;;;;12.07;2.92;;;;;;;25.25;62.58;98990.36;1591191;89;21089;-78
2022/06/05 10:57:33;;;;;;;11.00;2.40;;;;;;;24.69;62.64;98976.98;1568365;90;21041;-78
2022/06/05 11:00:08;;;;;;;7.42;2.45;;;;;;;24.29;62.09;98988.77;1580345;89;21105;-77
2022/06/05 11:03:01;;;;;;;14.75;3.25;;;;;;;23.84;64.77;98988.47;1580435;89;21071;-81
2022/06/05 11:06:06;;;;;;;8.10;3.20;;;;;;;23.56;65.23;98989.35;1577631;90;21119;-78
2022/06/05 11:09:15;;;;;;;7.75;3.12;;;;;;;23.38;65.95;99001.45;1562160;90;21100;-80
2022/06/05 11:14:55;;;;;;;10.00;2.83;;;;;;;23.03;70.45;99016.50;1564037;90;21137;-81
2022/06/05 11:17:37;;;;;;;10.88;2.62;;;;;;;23.05;70.60;99031.46;1599412;88;21190;-82
2022/06/05 11:20:17;;;;;;;7.28;2.50;;;;;;;23.12;70.02;99026.89;1561325;90;21107;-81
2022/06/05 11:23:04;;;;;;;5.92;2.75;;;;;;;23.19;69.88;99023.27;1558044;90;21508;-79
2022/06/05 11:25:39;;;;;;;7.10;2.80;;;;;;;23.21;70.63;99014.21;1568252;90;21097;-80
2022/06/05 11:28:57;;;;;;;5.00;2.87;;;;;;;23.47;72.37;99014.45;1557383;89;21086;-80
2022/06/05 11:31:42;;;;;;;7.10;2.67;;;;;;;23.72;72.47;99009.36;1546470;92;21111;-79
2022/06/05 11:34:35;;;;;;;7.80;2.70;;;;;;;24.11;70.23;99005.75;1546073;91;21067;-78
2022/06/05 11:37:16;;;;;;;4.12;2.55;;;;;;;24.45;70.64;98998.95;1561231;90;21115;-78
2022/06/05 11:40:16;;;;;;;4.58;2.37;;;;;;;24.64;69.05;99010.25;1582770;89;21105;-78
2022/06/05 11:43:01;;;;;;;6.33;2.80;;;;;;;24.80;67.93;99022.08;1551335;91;21543;-77
2022/06/05 11:45:39;;;;;;;6.53;2.70;;;;;;;24.98;69.01;99019.66;1570365;90;21181;-77
2022/06/05 11:48:20;;;;;;;6.92;2.50;;;;;;;25.24;68.45;99011.77;1582865;87;21055;-79
2022/06/05 11:51:21;;;;;;;6.53;2.80;;;;;;;25.37;67.36;99009.73;1585614;90;21112;-80
2022/06/05 11:54:08;;;;;;;6.28;2.60;;;;;;;25.33;66.61;98999.84;1546473;93;21130;-79
2022/06/05 11:56:58;;;;;;;3.72;2.05;;;;;;;25.47;66.70;99010.59;1587189;90;21411;-78
2022/06/05 11:59:53;;;;;;;7.50;2.60;;;;;;;25.42;66.00;99007.98;1570424;90;21070;-79
2022/06/05 12:02:40;;;;;;;4.37;2.67;;;;;;;25.63;65.91;99000.77;1584863;90;21079;-79
2022/06/05 12:05:33;;;;;;;4.00;2.20;;;;;;;26.08;66.46;98991.45;1568958;90;21083;-79
2022/06/05 12:08:15;;;;;;;;;;;;;;;26.49;65.78;99004.13;1545910;91;21078;-79
2022/06/05 12:11:07;;;;;;;4.97;2.17;;;;;;;26.74;64.57;98997.36;1556925;90;20167;-78
2022/06/05 12:13:42;;;;;;;6.42;1.90;;;;;;;26.88;63.93;99004.06;1588331;90;21096;-78
2022/06/05 12:16:23;;;;;;;4.92;2.05;;;;;;;26.64;61.47;99025.87;1575678;90;21076;-80
2022/06/05 12:19:03;;;;;;;5.22;2.85;;;;;;;26.28;60.67;99027.78;1586477;90;21140;-79
2022/06/05 12:21:47;;;;;;;6.15;2.30;;;;;;;25.92;61.84;99023.95;1576003;90;21045;-77
2022/06/05 12:24:22;;;;;;;6.40;1.98;;;;;;;26.26;61.16;99003.58;1586082;90;21070;-80